Aviation Digital Data Service (ADDS)

Output produced by METARs form (2326 UTC 01 February 2023)
found at http://www.aviationweather.gov/metar/data/
 
KHKY 012316Z AUTO 07004KT 10SM BKN009 BKN013 OVC024 06/04 A3023 RMK AO2 T00610039
KHKY 012253Z 07004KT 10SM FEW011 OVC022 06/04 A3023 RMK AO2 SLP227 T00610039
KHKY 012240Z 08004KT 10SM SCT013 BKN023 OVC030 06/04 A3022 RMK AO2 T00610039
KHKY 011738Z 0118/0218 07006KT P6SM OVC008 
     TEMPO 0119/0123 OVC011 
     FM020300 11004KT 4SM BR OVC004 
     PROB30 0204/0209 2SM -RA BR OVC006 
     FM020900 VRB02KT 3SM -RA BR OVC003